createdAt,value
2022-08-19T00:00:15.190Z,10.10
2022-08-19T00:02:49.969Z,13.25
2022-08-19T00:05:21.677Z,7.20
2022-08-19T00:07:53.073Z,6.28
2022-08-19T00:10:22.998Z,6.85
2022-08-19T00:12:52.424Z,8.70
2022-08-19T00:15:23.693Z,7.50
2022-08-19T00:17:52.936Z,9.10
2022-08-19T00:20:24.096Z,9.63
2022-08-19T00:22:55.484Z,9.25
2022-08-19T00:25:29.873Z,7.47
2022-08-19T00:28:00.663Z,12.32
2022-08-19T00:30:30.054Z,12.73
2022-08-19T00:32:59.864Z,7.45
2022-08-19T00:35:29.502Z,10.15
2022-08-19T00:38:01.419Z,8.88
2022-08-19T00:40:31.960Z,8.65
2022-08-19T00:43:01.725Z,8.60
2022-08-19T00:45:36.523Z,8.52
2022-08-19T00:48:06.626Z,8.20
2022-08-19T00:50:51.607Z,9.23
2022-08-19T00:53:27.662Z,9.90
2022-08-19T00:56:00.725Z,10.05
2022-08-19T00:58:34.896Z,8.30
2022-08-19T01:01:06.031Z,9.10
2022-08-19T01:03:56.482Z,17.65
2022-08-19T01:06:27.253Z,8.90
2022-08-19T01:08:58.581Z,13.20
2022-08-19T01:11:28.077Z,14.10
2022-08-19T01:13:58.013Z,9.55
2022-08-19T01:16:31.363Z,12.15
2022-08-19T01:19:00.386Z,11.77
2022-08-19T01:21:34.834Z,10.02
2022-08-19T01:24:06.636Z,7.95
2022-08-19T01:26:42.931Z,9.88
2022-08-19T01:29:14.033Z,9.20
2022-08-19T01:34:13.616Z,9.85
2022-08-19T01:36:48.481Z,11.15
2022-08-19T01:39:22.758Z,8.95
2022-08-19T01:41:56.409Z,10.82
2022-08-19T01:44:26.281Z,10.18
2022-08-19T01:46:55.379Z,8.65
2022-08-19T01:49:27.882Z,12.30
2022-08-19T01:51:59.495Z,8.27
2022-08-19T01:54:30.529Z,12.82
2022-08-19T01:57:04.184Z,8.48
2022-08-19T01:59:35.126Z,17.95
2022-08-19T02:02:06.876Z,14.70
2022-08-19T02:04:36.614Z,12.63
2022-08-19T02:07:06.579Z,7.07
2022-08-19T02:09:38.656Z,12.75
2022-08-19T02:12:10.131Z,10.73
2022-08-19T02:17:10.732Z,12.05
2022-08-19T02:19:41.693Z,6.88
2022-08-19T02:22:12.413Z,6.60
2022-08-19T02:24:43.513Z,7.20
2022-08-19T02:27:12.639Z,8.52
2022-08-19T02:29:42.788Z,7.15
2022-08-19T02:32:12.260Z,8.98
2022-08-19T02:34:41.681Z,10.20
2022-08-19T02:37:31.811Z,4.93
2022-08-19T02:40:05.575Z,8.60
2022-08-19T02:42:44.356Z,11.13
2022-08-19T02:47:44.979Z,8.95
2022-08-19T02:50:15.851Z,9.55
2022-08-19T02:52:46.169Z,5.57
2022-08-19T02:55:18.394Z,9.27
2022-08-19T02:57:47.939Z,10.13
2022-08-19T03:00:18.369Z,10.15
2022-08-19T03:02:49.946Z,11.27
2022-08-19T03:05:19.259Z,12.00
2022-08-19T03:07:57.669Z,10.88
2022-08-19T03:10:28.585Z,9.45
2022-08-19T03:12:58.594Z,11.43
2022-08-19T03:15:32.534Z,8.63
2022-08-19T03:18:01.701Z,8.43
2022-08-19T03:20:32.049Z,10.05
2022-08-19T03:23:01.880Z,9.35
2022-08-19T03:25:39.769Z,11.07
2022-08-19T03:28:09.600Z,9.15
2022-08-19T03:30:40.675Z,7.22
2022-08-19T03:33:18.277Z,5.80
2022-08-19T03:36:10.652Z,9.02
2022-08-19T03:38:41.718Z,9.93
2022-08-19T03:41:16.563Z,9.45
2022-08-19T03:43:47.925Z,10.23
2022-08-19T03:48:47.712Z,7.07
2022-08-19T03:51:30.847Z,9.88
2022-08-19T03:54:02.489Z,6.97
2022-08-19T03:56:33.559Z,8.18
2022-08-19T03:59:02.778Z,10.80
2022-08-19T04:01:35.434Z,13.10
2022-08-19T04:04:05.992Z,10.77
2022-08-19T04:06:40.554Z,14.43
2022-08-19T04:09:13.333Z,19.83
2022-08-19T04:11:48.384Z,7.20
2022-08-19T04:14:20.397Z,12.60
2022-08-19T04:16:51.572Z,15.48
2022-08-19T04:19:22.958Z,11.35
2022-08-19T04:24:25.430Z,14.20
2022-08-19T04:26:57.137Z,9.63
2022-08-19T04:29:28.367Z,10.70
2022-08-19T04:31:59.716Z,8.70
2022-08-19T04:34:31.618Z,13.02
2022-08-19T04:37:01.527Z,9.60
2022-08-19T04:39:46.804Z,13.90
2022-08-19T04:42:35.940Z,9.00
2022-08-19T04:45:09.403Z,8.27
2022-08-19T04:47:47.424Z,9.90
2022-08-19T04:50:27.923Z,7.63
2022-08-19T04:52:57.854Z,13.85
2022-08-19T04:55:27.934Z,11.63
2022-08-19T04:58:01.238Z,8.88
2022-08-19T05:00:32.672Z,7.15
2022-08-19T05:03:05.005Z,9.30
2022-08-19T05:05:45.343Z,10.20
2022-08-19T05:08:19.777Z,8.05
2022-08-19T05:11:01.464Z,11.48
2022-08-19T05:13:32.633Z,7.90
2022-08-19T05:16:02.761Z,9.10
2022-08-19T05:18:50.674Z,6.90
2022-08-19T05:21:41.595Z,11.10
2022-08-19T05:24:13.892Z,10.68
2022-08-19T05:26:46.693Z,10.77
2022-08-19T05:29:21.178Z,11.75
2022-08-19T05:31:54.794Z,10.70
2022-08-19T05:34:27.492Z,14.10
2022-08-19T05:37:01.314Z,14.32
2022-08-19T05:39:34.709Z,9.23
2022-08-19T05:42:08.216Z,14.43
2022-08-19T05:44:45.360Z,9.27
2022-08-19T05:47:20.183Z,12.40
2022-08-19T05:49:53.137Z,7.55
2022-08-19T05:52:26.037Z,10.98
2022-08-19T05:54:57.212Z,7.80
2022-08-19T05:57:29.019Z,13.05
2022-08-19T06:00:03.578Z,10.95
2022-08-19T06:02:42.590Z,24.95
2022-08-19T06:05:13.028Z,7.72
2022-08-19T06:07:43.084Z,9.20
2022-08-19T06:10:13.477Z,9.00
2022-08-19T06:12:44.710Z,15.85
2022-08-19T06:15:17.221Z,12.13
2022-08-19T06:17:47.520Z,9.38
2022-08-19T06:20:34.363Z,8.13
2022-08-19T06:23:11.118Z,12.05
2022-08-19T06:25:47.415Z,11.00
2022-08-19T06:28:17.353Z,16.30
2022-08-19T06:30:49.752Z,10.50
2022-08-19T06:33:19.721Z,10.88
2022-08-19T06:35:50.155Z,13.57
2022-08-19T06:38:24.670Z,8.77
2022-08-19T06:41:01.997Z,15.15
2022-08-19T06:43:42.107Z,14.05
2022-08-19T06:46:21.434Z,8.77
2022-08-19T06:48:51.168Z,8.50
2022-08-19T06:51:21.292Z,12.13
2022-08-19T06:53:55.698Z,16.35
2022-08-19T06:56:32.976Z,13.35
2022-08-19T06:59:04.920Z,13.40
2022-08-19T07:01:42.231Z,9.23
2022-08-19T07:04:12.383Z,9.13
2022-08-19T07:06:43.524Z,10.70
2022-08-19T07:09:18.387Z,9.02
2022-08-19T07:11:54.866Z,11.25
2022-08-19T07:14:27.314Z,11.77
2022-08-19T07:16:59.387Z,6.78
2022-08-19T07:19:29.684Z,10.95
2022-08-19T07:22:00.675Z,8.03
2022-08-19T07:24:33.763Z,9.95
2022-08-19T07:27:06.354Z,8.07
2022-08-19T07:29:45.752Z,7.65
2022-08-19T07:32:28.366Z,9.90
2022-08-19T07:34:58.163Z,10.73
2022-08-19T07:37:33.075Z,9.30
2022-08-19T07:40:03.965Z,8.70
2022-08-19T07:42:34.177Z,6.93
2022-08-19T07:45:03.899Z,6.40
2022-08-19T07:47:49.299Z,11.20
2022-08-19T07:50:23.032Z,7.63
2022-08-19T07:55:41.739Z,9.73
2022-08-19T07:58:18.071Z,9.85
2022-08-19T08:00:50.889Z,12.23
2022-08-19T08:03:47.767Z,9.95
2022-08-19T08:06:36.691Z,9.23
2022-08-19T08:12:13.320Z,9.70
2022-08-19T08:14:56.875Z,13.15
2022-08-19T08:17:31.011Z,12.30
2022-08-19T08:20:22.008Z,9.90
2022-08-19T08:23:10.659Z,9.48
2022-08-19T08:25:40.832Z,7.40
2022-08-19T08:28:17.702Z,7.73
2022-08-19T08:30:50.641Z,5.65
2022-08-19T08:33:32.735Z,7.25
2022-08-19T08:36:09.931Z,7.50
2022-08-19T08:38:41.491Z,6.43
2022-08-19T08:41:21.762Z,8.90
2022-08-19T08:43:54.818Z,8.07
2022-08-19T08:46:32.761Z,6.70
2022-08-19T08:49:08.805Z,5.60
2022-08-19T08:51:44.875Z,10.23
2022-08-19T08:54:22.614Z,7.60
2022-08-19T08:56:56.251Z,6.63
2022-08-19T08:59:33.754Z,6.22
2022-08-19T09:02:03.987Z,6.35
2022-08-19T09:04:34.167Z,4.57
2022-08-19T09:07:34.968Z,5.30
2022-08-19T09:10:12.624Z,6.78
2022-08-19T09:12:51.944Z,3.78
2022-08-19T09:15:36.872Z,10.73
2022-08-19T09:18:08.060Z,7.68
2022-08-19T09:20:45.590Z,6.05
2022-08-19T09:23:17.765Z,9.77
2022-08-19T09:25:48.066Z,5.75
2022-08-19T09:28:22.546Z,6.95
2022-08-19T09:30:56.892Z,8.77
2022-08-19T09:33:30.130Z,5.50
2022-08-19T09:36:10.561Z,5.57
2022-08-19T09:38:43.620Z,7.93
2022-08-19T09:41:20.469Z,4.90
2022-08-19T09:43:54.763Z,4.45
2022-08-19T09:46:27.293Z,6.53
2022-08-19T09:49:06.389Z,4.43
2022-08-19T09:51:37.678Z,3.95
2022-08-19T09:54:11.311Z,11.90
2022-08-19T09:56:42.306Z,10.48
2022-08-19T09:59:14.620Z,6.75
2022-08-19T10:01:45.231Z,10.02
2022-08-19T10:04:19.998Z,9.32
2022-08-19T10:06:55.394Z,7.20
2022-08-19T10:09:34.254Z,12.95
2022-08-19T10:12:06.161Z,8.02
2022-08-19T10:14:36.851Z,5.40
2022-08-19T10:17:18.055Z,10.55
2022-08-19T10:19:56.011Z,6.30
2022-08-19T10:22:26.391Z,7.60
2022-08-19T10:24:58.258Z,10.75
2022-08-19T10:27:28.350Z,8.98
2022-08-19T10:30:02.628Z,6.30
2022-08-19T10:32:34.026Z,5.38
2022-08-19T10:35:09.235Z,5.90
2022-08-19T10:37:42.373Z,11.48
2022-08-19T10:40:38.024Z,6.18
2022-08-19T10:43:09.821Z,12.63
2022-08-19T10:45:52.544Z,8.73
2022-08-19T10:48:27.708Z,12.25
2022-08-19T10:51:22.838Z,7.07
2022-08-19T10:53:54.902Z,6.22
2022-08-19T10:56:46.164Z,9.50
2022-08-19T10:59:19.780Z,6.65
2022-08-19T11:01:51.634Z,3.50
2022-08-19T11:04:29.581Z,4.00
2022-08-19T11:06:59.774Z,4.82
2022-08-19T11:09:34.621Z,5.17
2022-08-19T11:12:05.945Z,8.07
2022-08-19T11:14:36.134Z,3.45
2022-08-19T11:17:08.122Z,9.63
2022-08-19T11:19:37.799Z,5.03
2022-08-19T11:22:11.009Z,4.25
2022-08-19T11:24:46.099Z,5.65
2022-08-19T11:27:18.103Z,6.93
2022-08-19T11:29:48.636Z,5.55
2022-08-19T11:32:18.696Z,8.82
2022-08-19T11:34:48.775Z,6.72
2022-08-19T11:37:21.762Z,6.80
2022-08-19T11:39:53.608Z,8.55
2022-08-19T11:42:43.746Z,8.77
2022-08-19T11:45:15.185Z,7.20
2022-08-19T11:47:45.398Z,11.25
2022-08-19T11:50:15.626Z,10.00
2022-08-19T11:52:46.488Z,6.03
2022-08-19T11:55:17.766Z,7.47
2022-08-19T11:57:49.815Z,5.80
2022-08-19T12:00:22.751Z,6.95
2022-08-19T12:02:53.214Z,3.95
2022-08-19T12:05:25.856Z,5.35
2022-08-19T12:07:55.746Z,10.02
2022-08-19T12:10:27.785Z,10.50
2022-08-19T12:13:02.000Z,4.53
2022-08-19T12:15:36.917Z,6.50
2022-08-19T12:18:09.539Z,22.83
2022-08-19T12:20:40.890Z,6.53
2022-08-19T12:23:12.563Z,9.23
2022-08-19T12:25:51.174Z,7.40
2022-08-19T12:28:27.940Z,12.18
2022-08-19T12:30:59.642Z,7.95
2022-08-19T12:33:30.449Z,6.63
2022-08-19T12:36:04.950Z,6.78
2022-08-19T12:38:36.039Z,6.00
2022-08-19T12:43:42.493Z,8.52
2022-08-19T12:46:14.162Z,6.53
2022-08-19T12:48:48.287Z,5.20
2022-08-19T12:51:24.738Z,8.13
2022-08-19T12:53:54.602Z,9.02
2022-08-19T12:56:25.697Z,7.25
2022-08-19T12:59:01.514Z,8.32
2022-08-19T13:01:35.360Z,6.93
2022-08-19T13:04:06.750Z,11.20
2022-08-19T13:06:40.068Z,9.10
2022-08-19T13:09:11.369Z,6.75
2022-08-19T13:11:42.879Z,5.90
2022-08-19T13:14:16.501Z,7.70
2022-08-19T13:16:47.835Z,3.72
2022-08-19T13:19:22.128Z,13.00
2022-08-19T13:22:00.058Z,11.45
2022-08-19T13:24:33.952Z,6.53
2022-08-19T13:27:04.249Z,11.23
2022-08-19T13:29:48.630Z,8.63
2022-08-19T13:32:36.105Z,6.18
2022-08-19T13:35:07.226Z,12.77
2022-08-19T13:37:45.102Z,9.15
2022-08-19T13:40:19.690Z,8.48
2022-08-19T13:42:51.962Z,7.28
2022-08-19T13:45:26.551Z,8.57
2022-08-19T13:47:59.712Z,12.70
2022-08-19T13:50:32.874Z,13.02
2022-08-19T13:53:03.470Z,13.35
2022-08-19T13:55:33.537Z,17.05
2022-08-19T13:58:04.646Z,17.88
2022-08-19T14:03:09.518Z,17.02
2022-08-19T14:05:40.544Z,13.65
2022-08-19T14:08:11.341Z,14.23
2022-08-19T14:10:43.720Z,14.05
2022-08-19T14:13:16.989Z,13.43
2022-08-19T14:15:49.468Z,16.02
2022-08-19T14:18:28.648Z,23.98
2022-08-19T14:21:01.162Z,25.27
2022-08-19T14:23:31.656Z,18.03
2022-08-19T14:26:11.338Z,20.92
2022-08-19T14:28:42.969Z,20.67
2022-08-19T14:31:17.813Z,18.13
2022-08-19T14:33:48.781Z,14.63
2022-08-19T14:36:19.850Z,18.40
2022-08-19T14:38:50.892Z,15.77
2022-08-19T14:41:24.245Z,22.27
2022-08-19T14:43:56.878Z,16.58
2022-08-19T14:46:29.729Z,23.75
2022-08-19T14:49:00.419Z,29.98
2022-08-19T14:51:32.270Z,24.52
2022-08-19T14:54:02.219Z,28.17
2022-08-19T14:56:33.384Z,24.67
2022-08-19T14:59:04.783Z,21.75
2022-08-19T15:01:36.738Z,29.98
2022-08-19T15:04:10.412Z,26.25
2022-08-19T15:06:43.723Z,16.75
2022-08-19T15:09:15.317Z,16.70
2022-08-19T15:11:47.451Z,16.58
2022-08-19T15:14:18.225Z,15.95
2022-08-19T15:16:51.078Z,18.38
2022-08-19T15:19:25.062Z,19.00
2022-08-19T15:21:56.756Z,19.02
2022-08-19T15:24:28.999Z,24.15
2022-08-19T15:27:00.093Z,14.98
2022-08-19T15:29:33.638Z,15.30
2022-08-19T15:32:08.655Z,17.45
2022-08-19T15:34:39.487Z,14.20
2022-08-19T15:37:13.531Z,14.75
2022-08-19T15:39:47.238Z,14.38
2022-08-19T15:42:29.550Z,18.48
2022-08-19T15:45:10.328Z,13.13
2022-08-19T15:47:49.986Z,15.38
2022-08-19T15:50:27.073Z,16.98
2022-08-19T15:52:58.652Z,19.50
2022-08-19T15:55:34.125Z,17.50
2022-08-19T16:01:35.423Z,16.70
2022-08-19T16:04:34.774Z,14.13
2022-08-19T16:07:05.680Z,15.65
2022-08-19T16:09:36.703Z,12.02
2022-08-19T16:12:11.964Z,15.20
2022-08-19T16:14:44.751Z,12.23
2022-08-19T16:17:15.956Z,11.07
2022-08-19T16:22:22.877Z,12.98
2022-08-19T16:24:55.789Z,7.47
2022-08-19T16:27:27.430Z,8.40
2022-08-19T16:29:58.686Z,15.43
2022-08-19T16:32:30.194Z,11.38
2022-08-19T16:35:05.997Z,11.05
2022-08-19T16:37:37.836Z,8.55
2022-08-19T16:40:09.656Z,13.45
2022-08-19T16:42:41.328Z,11.68
2022-08-19T16:45:14.424Z,9.13
2022-08-19T16:47:44.952Z,8.48
2022-08-19T16:50:22.186Z,6.22
2022-08-19T16:53:01.484Z,9.75
2022-08-19T16:55:32.608Z,13.38
2022-08-19T16:58:07.631Z,10.10
2022-08-19T17:00:37.495Z,9.98
2022-08-19T17:03:14.859Z,12.68
2022-08-19T17:05:47.971Z,8.68
2022-08-19T17:08:19.628Z,6.90
2022-08-19T17:11:17.148Z,7.40
2022-08-19T17:13:44.903Z,11.45
2022-08-19T17:16:18.744Z,6.82
2022-08-19T17:18:52.763Z,8.25
2022-08-19T17:21:28.035Z,5.97
2022-08-19T17:23:58.201Z,8.88
2022-08-19T17:26:30.201Z,7.90
2022-08-19T17:29:01.523Z,9.68
2022-08-19T17:34:06.634Z,11.77
2022-08-19T17:36:40.450Z,11.20
2022-08-19T17:39:10.489Z,7.32
2022-08-19T17:41:41.638Z,10.20
2022-08-19T17:44:12.412Z,7.72
2022-08-19T17:46:45.539Z,11.55
2022-08-19T17:49:15.848Z,11.57
2022-08-19T17:51:48.880Z,9.23
2022-08-19T17:54:21.648Z,9.57
2022-08-19T17:56:52.854Z,5.97
2022-08-19T17:59:24.131Z,11.30
2022-08-19T18:02:00.784Z,9.40
2022-08-19T18:04:32.840Z,6.65
2022-08-19T18:07:06.703Z,6.80
2022-08-19T18:09:42.240Z,18.17
2022-08-19T18:12:16.772Z,8.95
2022-08-19T18:14:46.621Z,5.30
2022-08-19T18:17:19.682Z,6.70
2022-08-19T18:20:12.259Z,8.27
2022-08-19T18:22:45.802Z,9.38
2022-08-19T18:25:24.080Z,5.88
2022-08-19T18:27:55.223Z,7.97
2022-08-19T18:30:26.328Z,5.82
2022-08-19T18:32:56.507Z,6.18
2022-08-19T18:35:30.168Z,9.63
2022-08-19T18:38:29.088Z,5.25
2022-08-19T18:41:24.793Z,9.88
2022-08-19T18:44:14.644Z,6.85
2022-08-19T18:47:04.453Z,9.77
2022-08-19T18:49:36.496Z,6.97
2022-08-19T18:52:07.343Z,6.30
2022-08-19T18:54:40.736Z,12.25
2022-08-19T18:57:11.081Z,15.77
2022-08-19T18:59:45.111Z,16.10
2022-08-19T19:02:15.800Z,11.63
2022-08-19T19:04:45.946Z,9.73
2022-08-19T19:07:18.653Z,10.40
2022-08-19T19:09:50.496Z,14.63
2022-08-19T19:12:22.892Z,6.35
2022-08-19T19:14:52.427Z,11.38
2022-08-19T19:17:28.686Z,5.22
2022-08-19T19:19:58.875Z,8.88
2022-08-19T19:22:29.220Z,6.72
2022-08-19T19:25:00.991Z,6.45
2022-08-19T19:27:31.046Z,13.60
2022-08-19T19:30:01.428Z,9.00
2022-08-19T19:32:39.233Z,5.35
2022-08-19T19:35:10.857Z,7.65
2022-08-19T19:40:15.487Z,10.27
2022-08-19T19:42:48.087Z,12.60
2022-08-19T19:45:19.289Z,8.77
2022-08-19T19:47:50.385Z,5.90
2022-08-19T19:50:21.618Z,6.57
2022-08-19T19:52:51.380Z,5.47
2022-08-19T19:55:26.957Z,6.65
2022-08-19T19:57:58.339Z,8.30
2022-08-19T20:00:30.110Z,5.35
2022-08-19T20:03:01.296Z,7.10
2022-08-19T20:05:32.573Z,5.82
2022-08-19T20:08:23.110Z,10.50
2022-08-19T20:10:58.116Z,9.63
2022-08-19T20:13:30.641Z,9.15
2022-08-19T20:16:03.888Z,9.85
2022-08-19T20:18:33.491Z,10.45
2022-08-19T20:21:04.038Z,8.55
2022-08-19T20:23:34.940Z,6.35
2022-08-19T20:26:09.678Z,9.23
2022-08-19T20:29:11.286Z,5.65
2022-08-19T20:31:57.781Z,10.15
2022-08-19T20:34:31.616Z,7.00
2022-08-19T20:37:02.584Z,4.15
2022-08-19T20:39:32.699Z,8.23
2022-08-19T20:42:03.504Z,3.53
2022-08-19T20:44:33.184Z,6.70
2022-08-19T20:47:04.078Z,5.80
2022-08-19T20:49:39.967Z,7.03
2022-08-19T20:52:09.876Z,5.22
2022-08-19T20:54:39.726Z,5.60
2022-08-19T20:57:12.571Z,8.43
2022-08-19T20:59:42.388Z,8.68
2022-08-19T21:02:12.853Z,7.03
2022-08-19T21:04:42.467Z,5.65
2022-08-19T21:07:14.674Z,7.85
2022-08-19T21:09:44.711Z,10.48
2022-08-19T21:12:16.440Z,8.10
2022-08-19T21:14:47.560Z,8.25
2022-08-19T21:17:18.546Z,7.22
2022-08-19T21:19:55.350Z,4.78
2022-08-19T21:22:24.840Z,7.75
2022-08-19T21:24:56.476Z,6.60
2022-08-19T21:27:28.504Z,6.63
2022-08-19T21:30:01.526Z,7.28
2022-08-19T21:32:34.501Z,6.63
2022-08-19T21:35:04.868Z,9.50
2022-08-19T21:37:35.680Z,6.03
2022-08-19T21:40:06.658Z,7.10
2022-08-19T21:42:43.790Z,8.18
2022-08-19T21:45:24.265Z,5.13
2022-08-19T21:47:59.760Z,14.65
2022-08-19T21:50:32.898Z,9.63
2022-08-19T21:53:05.026Z,13.93
2022-08-19T21:55:35.502Z,8.40
2022-08-19T21:58:06.758Z,6.17
2022-08-19T22:00:38.274Z,9.30
2022-08-19T22:03:08.252Z,8.82
2022-08-19T22:05:38.084Z,12.13
2022-08-19T22:08:07.802Z,8.23
2022-08-19T22:10:39.041Z,18.17
2022-08-19T22:13:11.384Z,13.57
2022-08-19T22:15:42.595Z,14.85
2022-08-19T22:18:13.861Z,13.45
2022-08-19T22:20:45.240Z,15.27
2022-08-19T22:23:15.184Z,12.88
2022-08-19T22:25:48.073Z,14.43
2022-08-19T22:28:28.161Z,12.18
2022-08-19T22:30:57.915Z,16.80
2022-08-19T22:33:28.106Z,15.27
2022-08-19T22:35:58.103Z,10.57
2022-08-19T22:38:28.275Z,14.65
2022-08-19T22:40:57.443Z,16.40
2022-08-19T22:43:30.680Z,15.70
2022-08-19T22:46:01.800Z,13.55
2022-08-19T22:48:32.930Z,17.50
2022-08-19T22:51:20.529Z,16.42
2022-08-19T22:53:50.163Z,16.00
2022-08-19T22:56:20.728Z,13.75
2022-08-19T22:58:52.871Z,16.80
2022-08-19T23:01:27.693Z,14.30
2022-08-19T23:04:03.732Z,20.92
2022-08-19T23:06:36.383Z,15.57
2022-08-19T23:09:09.010Z,17.90
2022-08-19T23:11:42.027Z,18.45
2022-08-19T23:14:14.579Z,18.83
2022-08-19T23:16:50.470Z,20.08
2022-08-19T23:19:20.579Z,14.07
2022-08-19T23:21:50.723Z,19.42
2022-08-19T23:24:20.572Z,19.83
2022-08-19T23:27:07.559Z,21.17
2022-08-19T23:29:56.445Z,23.13
2022-08-19T23:32:26.817Z,20.45
2022-08-19T23:34:59.776Z,27.63
2022-08-19T23:37:29.954Z,27.38
2022-08-19T23:40:01.492Z,28.55
2022-08-19T23:42:31.955Z,23.98
2022-08-19T23:45:08.905Z,29.90
2022-08-19T23:47:41.347Z,28.55
2022-08-19T23:50:11.878Z,30.73
2022-08-19T23:52:46.711Z,29.05
2022-08-19T23:55:18.049Z,28.67
2022-08-19T23:57:48.310Z,33.53
